createdAt,value
2023-02-26T00:01:31.248Z,32.70
2023-02-26T00:04:01.431Z,24.53
2023-02-26T00:06:31.486Z,25.57
2023-02-26T00:08:59.101Z,22.63
2023-02-26T00:11:26.663Z,21.23
2023-02-26T00:13:54.065Z,20.90
2023-02-26T00:16:34.760Z,20.27
2023-02-26T00:19:08.392Z,18.40
2023-02-26T00:21:36.592Z,18.17
2023-02-26T00:24:07.001Z,18.30
2023-02-26T00:26:35.924Z,16.27
2023-02-26T00:29:04.598Z,16.80
2023-02-26T00:31:32.211Z,15.77
2023-02-26T00:34:15.616Z,14.03
2023-02-26T00:36:46.495Z,13.83
2023-02-26T00:39:19.667Z,15.70
2023-02-26T00:41:48.315Z,20.47
2023-02-26T00:44:15.975Z,17.33
2023-02-26T00:46:50.177Z,19.03
2023-02-26T00:49:27.648Z,20.03
2023-02-26T00:51:54.837Z,22.17
2023-02-26T00:54:27.823Z,26.90
2023-02-26T00:56:56.229Z,34.40
2023-02-26T00:59:23.863Z,38.57
2023-02-26T01:01:52.418Z,40.07
2023-02-26T01:04:22.854Z,38.23
2023-02-26T01:06:56.591Z,41.43
2023-02-26T01:09:27.883Z,42.47
2023-02-26T01:12:01.783Z,38.33
2023-02-26T01:14:30.257Z,39.30
2023-02-26T01:17:11.842Z,40.17
2023-02-26T01:19:45.363Z,37.63
2023-02-26T01:22:31.652Z,36.57
2023-02-26T01:25:11.911Z,34.53
2023-02-26T01:27:40.045Z,34.53
2023-02-26T01:30:08.570Z,36.47
2023-02-26T01:32:45.081Z,34.07
2023-02-26T01:35:39.817Z,32.67
2023-02-26T01:38:16.706Z,33.43
2023-02-26T01:41:01.979Z,31.93
2023-02-26T01:43:37.949Z,29.03
2023-02-26T01:46:37.575Z,31.83
2023-02-26T01:49:12.267Z,21.33
2023-02-26T01:51:47.481Z,22.63
2023-02-26T01:54:16.676Z,22.20
2023-02-26T01:56:45.554Z,24.03
2023-02-26T01:59:15.913Z,25.67
2023-02-26T02:01:43.985Z,25.57
2023-02-26T02:04:14.788Z,25.90
2023-02-26T02:06:43.324Z,23.53
2023-02-26T02:09:10.654Z,24.60
2023-02-26T02:11:51.245Z,20.73
2023-02-26T02:14:45.210Z,20.07
2023-02-26T02:17:41.809Z,21.57
2023-02-26T02:20:35.903Z,16.97
2023-02-26T02:23:09.065Z,18.77
2023-02-26T02:25:44.390Z,19.47
2023-02-26T02:28:29.886Z,17.77
2023-02-26T02:31:21.046Z,21.73
2023-02-26T02:34:23.906Z,19.77
2023-02-26T02:37:01.433Z,20.10
2023-02-26T02:39:37.831Z,21.37
2023-02-26T02:42:16.805Z,20.40
2023-02-26T02:44:51.119Z,22.93
2023-02-26T02:47:20.916Z,22.90
2023-02-26T02:49:55.690Z,21.30
2023-02-26T02:55:40.420Z,26.80
2023-02-26T02:58:17.438Z,24.37
2023-02-26T03:00:49.924Z,24.07
2023-02-26T03:03:16.995Z,21.60
2023-02-26T03:05:44.149Z,24.47
2023-02-26T03:08:15.839Z,20.33
2023-02-26T03:10:46.843Z,18.27
2023-02-26T03:13:21.187Z,16.70
2023-02-26T03:16:09.208Z,17.63
2023-02-26T03:18:42.589Z,12.93
2023-02-26T03:21:38.612Z,9.50
2023-02-26T03:24:26.998Z,10.97
2023-02-26T03:27:33.273Z,10.77
2023-02-26T03:30:09.415Z,8.87
2023-02-26T03:32:45.327Z,9.43
2023-02-26T03:35:18.871Z,12.60
2023-02-26T03:37:50.446Z,9.00
2023-02-26T03:40:24.931Z,9.30
2023-02-26T03:43:04.699Z,10.13
2023-02-26T03:45:35.114Z,9.30
2023-02-26T03:48:05.984Z,10.83
2023-02-26T03:50:42.961Z,8.37
2023-02-26T03:53:40.184Z,9.57
2023-02-26T03:56:32.868Z,8.73
2023-02-26T03:59:19.324Z,9.70
2023-02-26T04:02:07.504Z,9.73
2023-02-26T04:04:49.566Z,10.67
2023-02-26T04:07:18.305Z,7.83
2023-02-26T04:09:48.369Z,9.83
2023-02-26T04:12:20.283Z,11.93
2023-02-26T04:14:49.180Z,7.87
2023-02-26T04:17:18.442Z,9.53
2023-02-26T04:19:45.851Z,9.03
2023-02-26T04:22:13.414Z,9.97
2023-02-26T04:24:40.630Z,10.33
2023-02-26T04:27:07.942Z,10.10
2023-02-26T04:29:34.988Z,9.97
2023-02-26T04:32:02.629Z,8.47
2023-02-26T04:34:30.362Z,9.27
2023-02-26T04:36:57.460Z,9.23
2023-02-26T04:39:24.598Z,8.37
2023-02-26T04:41:51.936Z,8.80
2023-02-26T04:44:18.898Z,6.93
2023-02-26T04:46:46.078Z,10.03
2023-02-26T04:49:13.405Z,9.80
2023-02-26T04:51:43.892Z,7.07
2023-02-26T04:54:13.543Z,7.73
2023-02-26T04:56:41.193Z,7.10
2023-02-26T04:59:08.226Z,7.77
2023-02-26T05:01:36.340Z,6.80
2023-02-26T05:04:05.510Z,7.10
2023-02-26T05:06:33.113Z,5.97
2023-02-26T05:09:00.178Z,6.63
2023-02-26T05:11:27.211Z,6.20
2023-02-26T05:13:54.252Z,5.50
2023-02-26T05:16:21.421Z,6.30
2023-02-26T05:18:48.437Z,7.43
2023-02-26T05:21:15.674Z,7.60
2023-02-26T05:23:42.796Z,7.13
2023-02-26T05:26:09.924Z,5.43
2023-02-26T05:28:38.148Z,5.90
2023-02-26T05:31:06.881Z,7.03
2023-02-26T05:33:33.923Z,6.50
2023-02-26T05:36:00.968Z,5.57
2023-02-26T05:38:28.111Z,3.90
2023-02-26T05:40:59.236Z,4.17
2023-02-26T05:43:26.830Z,7.43
2023-02-26T05:45:55.562Z,5.73
2023-02-26T05:48:23.363Z,5.30
2023-02-26T05:50:51.067Z,5.07
2023-02-26T05:53:18.353Z,5.30
2023-02-26T05:55:45.516Z,5.67
2023-02-26T05:58:12.625Z,4.70
2023-02-26T06:00:39.826Z,7.83
2023-02-26T06:03:06.852Z,7.53
2023-02-26T06:05:33.884Z,7.63
2023-02-26T06:08:01.025Z,8.37
2023-02-26T06:10:28.264Z,6.17
2023-02-26T06:12:55.242Z,9.33
2023-02-26T06:15:22.326Z,6.27
2023-02-26T06:17:49.372Z,11.73
2023-02-26T06:20:16.856Z,6.13
2023-02-26T06:22:44.114Z,6.73
2023-02-26T06:25:11.285Z,5.30
2023-02-26T06:27:38.247Z,6.30
2023-02-26T06:30:06.412Z,6.73
2023-02-26T06:32:33.942Z,8.07
2023-02-26T06:35:01.167Z,7.67
2023-02-26T06:37:28.160Z,6.50
2023-02-26T06:39:55.171Z,7.23
2023-02-26T06:42:23.071Z,6.97
2023-02-26T06:44:50.119Z,7.33
2023-02-26T06:47:17.154Z,10.83
2023-02-26T06:49:44.222Z,8.60
2023-02-26T06:52:11.375Z,7.63
2023-02-26T06:54:38.363Z,7.50
2023-02-26T06:57:05.451Z,8.00
2023-02-26T06:59:33.035Z,9.60
2023-02-26T07:02:00.104Z,7.33
2023-02-26T07:04:27.229Z,8.63
2023-02-26T07:06:54.348Z,6.53
2023-02-26T07:09:21.382Z,9.93
2023-02-26T07:11:48.526Z,8.80
2023-02-26T07:14:15.907Z,7.73
2023-02-26T07:16:42.966Z,8.03
2023-02-26T07:19:10.076Z,10.17
2023-02-26T07:21:37.209Z,10.97
2023-02-26T07:24:04.462Z,7.55
2023-02-26T07:26:31.481Z,8.93
2023-02-26T07:28:58.433Z,5.35
2023-02-26T07:31:25.579Z,7.15
2023-02-26T07:33:52.804Z,9.55
2023-02-26T07:36:20.052Z,10.48
2023-02-26T07:38:47.160Z,6.90
2023-02-26T07:41:14.173Z,6.35
2023-02-26T07:43:42.668Z,5.47
2023-02-26T07:46:09.949Z,7.93
2023-02-26T07:48:37.342Z,4.65
2023-02-26T07:51:04.833Z,5.82
2023-02-26T07:53:31.878Z,4.75
2023-02-26T07:55:58.863Z,4.63
2023-02-26T07:58:26.062Z,5.43
2023-02-26T08:00:53.148Z,4.57
2023-02-26T08:03:20.576Z,6.83
2023-02-26T08:05:47.766Z,6.30
2023-02-26T08:08:14.882Z,5.07
2023-02-26T08:10:42.488Z,5.90
2023-02-26T08:13:09.669Z,4.40
2023-02-26T08:15:36.661Z,4.27
2023-02-26T08:18:04.021Z,3.87
2023-02-26T08:20:31.220Z,4.97
2023-02-26T08:22:58.319Z,4.87
2023-02-26T08:25:25.349Z,4.33
2023-02-26T08:27:52.778Z,4.70
2023-02-26T08:30:19.979Z,5.70
2023-02-26T08:32:47.186Z,6.20
2023-02-26T08:35:14.299Z,6.30
2023-02-26T08:37:41.456Z,7.13
2023-02-26T08:40:10.253Z,6.37
2023-02-26T08:42:37.581Z,5.47
2023-02-26T08:45:05.294Z,7.63
2023-02-26T08:47:33.037Z,5.87
2023-02-26T08:50:01.239Z,5.33
2023-02-26T08:52:28.362Z,9.50
2023-02-26T08:54:55.454Z,5.90
2023-02-26T08:57:22.455Z,6.37
2023-02-26T08:59:49.516Z,6.17
2023-02-26T09:02:16.518Z,6.23
2023-02-26T09:04:43.572Z,4.93
2023-02-26T09:07:10.570Z,6.73
2023-02-26T09:09:37.647Z,5.30
2023-02-26T09:12:04.928Z,6.90
2023-02-26T09:14:31.941Z,7.83
2023-02-26T09:16:58.982Z,6.63
2023-02-26T09:19:26.104Z,6.20
2023-02-26T09:21:53.188Z,7.20
2023-02-26T09:24:20.179Z,6.00
2023-02-26T09:26:47.132Z,7.13
2023-02-26T09:29:14.978Z,11.73
2023-02-26T09:31:42.504Z,6.33
2023-02-26T09:34:11.435Z,7.90
2023-02-26T09:36:39.005Z,6.77
2023-02-26T09:39:08.801Z,6.10
2023-02-26T09:41:58.882Z,5.20
2023-02-26T09:44:25.914Z,7.27
2023-02-26T09:47:08.293Z,6.87
2023-02-26T09:49:50.473Z,7.63
2023-02-26T09:52:18.323Z,8.03
2023-02-26T09:54:53.546Z,6.50
2023-02-26T09:57:33.591Z,7.10
2023-02-26T10:00:01.832Z,9.53
2023-02-26T10:02:55.312Z,6.60
2023-02-26T10:05:50.078Z,5.40
2023-02-26T10:08:18.899Z,6.33
2023-02-26T10:10:46.036Z,4.13
2023-02-26T10:13:31.638Z,6.47
2023-02-26T10:16:06.434Z,5.47
2023-02-26T10:18:39.620Z,5.83
2023-02-26T10:21:15.331Z,4.83
2023-02-26T10:23:48.991Z,4.37
2023-02-26T10:26:30.173Z,4.20
2023-02-26T10:29:07.095Z,3.60
2023-02-26T10:32:00.164Z,3.70
2023-02-26T10:34:48.011Z,5.27
2023-02-26T10:37:33.331Z,5.03
2023-02-26T10:40:26.680Z,5.93
2023-02-26T10:43:20.357Z,3.47
2023-02-26T10:45:59.594Z,2.83
2023-02-26T10:48:41.692Z,6.17
2023-02-26T10:51:20.208Z,2.90
2023-02-26T10:53:54.903Z,3.67
2023-02-26T10:56:31.378Z,3.40
2023-02-26T10:58:59.812Z,3.00
2023-02-26T11:01:29.836Z,2.40
2023-02-26T11:04:04.041Z,2.83
2023-02-26T11:06:38.122Z,2.83
2023-02-26T11:09:13.922Z,3.53
2023-02-26T11:11:49.056Z,6.33
2023-02-26T11:14:16.275Z,4.57
2023-02-26T11:17:10.297Z,5.17
2023-02-26T11:19:48.765Z,4.05
2023-02-26T11:22:16.713Z,5.45
2023-02-26T11:24:47.858Z,3.50
2023-02-26T11:27:20.485Z,4.03
2023-02-26T11:29:49.962Z,4.80
2023-02-26T11:32:21.830Z,6.60
2023-02-26T11:34:50.871Z,3.80
2023-02-26T11:37:23.883Z,5.83
2023-02-26T11:40:18.269Z,6.77
2023-02-26T11:42:58.999Z,5.80
2023-02-26T11:45:26.500Z,5.70
2023-02-26T11:48:08.206Z,6.77
2023-02-26T11:50:46.386Z,6.17
2023-02-26T11:53:28.359Z,6.13
2023-02-26T11:56:02.062Z,7.23
2023-02-26T11:58:35.437Z,8.27
2023-02-26T12:01:03.800Z,7.33
2023-02-26T12:03:41.315Z,7.07
2023-02-26T12:06:16.622Z,8.20
2023-02-26T12:08:44.232Z,7.53
2023-02-26T12:11:36.399Z,7.43
2023-02-26T12:14:28.504Z,7.53
2023-02-26T12:17:07.711Z,8.33
2023-02-26T12:20:16.587Z,6.53
2023-02-26T12:23:14.750Z,8.20
2023-02-26T12:26:10.643Z,7.53
2023-02-26T12:28:55.203Z,6.97
2023-02-26T12:31:59.444Z,11.37
2023-02-26T12:34:29.847Z,7.47
2023-02-26T12:37:48.739Z,7.33
2023-02-26T12:40:32.934Z,8.17
2023-02-26T12:43:04.343Z,7.03
2023-02-26T12:45:59.707Z,7.07
2023-02-26T12:48:54.799Z,8.60
2023-02-26T12:51:49.973Z,12.67
2023-02-26T12:54:44.186Z,5.23
2023-02-26T12:57:56.039Z,5.07
2023-02-26T13:00:45.904Z,5.73
2023-02-26T13:03:23.464Z,5.03
2023-02-26T13:06:09.026Z,5.93
2023-02-26T13:08:52.480Z,6.80
2023-02-26T13:11:54.682Z,6.57
2023-02-26T13:14:55.077Z,6.00
2023-02-26T13:17:50.133Z,6.60
2023-02-26T13:20:23.772Z,6.00
2023-02-26T13:22:56.765Z,7.10
2023-02-26T13:25:41.226Z,7.47
2023-02-26T13:28:33.604Z,8.00
2023-02-26T13:31:03.835Z,10.07
2023-02-26T13:33:34.685Z,8.47
2023-02-26T13:36:02.770Z,8.10
2023-02-26T13:38:49.755Z,8.00
2023-02-26T13:41:20.862Z,7.87
2023-02-26T13:44:02.679Z,7.97
2023-02-26T13:46:50.074Z,8.77
2023-02-26T13:49:17.156Z,8.30
2023-02-26T13:51:48.971Z,8.60
2023-02-26T13:54:22.021Z,8.63
2023-02-26T13:57:10.088Z,7.27
2023-02-26T13:59:52.636Z,6.90
2023-02-26T14:02:19.716Z,4.47
2023-02-26T14:04:57.845Z,5.27
2023-02-26T14:07:55.971Z,4.97
2023-02-26T14:10:44.053Z,5.13
2023-02-26T14:13:17.441Z,6.90
2023-02-26T14:16:02.690Z,5.60
2023-02-26T14:18:48.129Z,6.33
2023-02-26T14:21:28.028Z,7.93
2023-02-26T14:24:16.322Z,9.90
2023-02-26T14:26:49.892Z,8.37
2023-02-26T14:29:20.795Z,8.43
2023-02-26T14:31:55.763Z,7.50
2023-02-26T14:34:26.393Z,6.77
2023-02-26T14:36:56.897Z,7.83
2023-02-26T14:39:35.000Z,9.83
2023-02-26T14:42:50.195Z,10.60
2023-02-26T14:45:17.192Z,8.93
2023-02-26T14:47:45.493Z,7.57
2023-02-26T14:50:16.889Z,9.13
2023-02-26T14:52:49.656Z,7.90
2023-02-26T14:55:28.514Z,8.47
2023-02-26T14:58:21.863Z,10.77
2023-02-26T15:00:58.368Z,9.30
2023-02-26T15:03:29.505Z,9.40
2023-02-26T15:06:34.501Z,8.73
2023-02-26T15:09:04.701Z,8.13
2023-02-26T15:11:50.385Z,8.83
2023-02-26T15:14:59.806Z,10.90
2023-02-26T15:17:54.253Z,11.27
2023-02-26T15:20:43.477Z,11.00
2023-02-26T15:23:18.768Z,11.03
2023-02-26T15:25:48.778Z,10.57
2023-02-26T15:28:29.029Z,8.23
2023-02-26T15:30:57.757Z,11.17
2023-02-26T15:33:25.898Z,9.63
2023-02-26T15:35:54.750Z,9.73
2023-02-26T15:38:23.097Z,9.87
2023-02-26T15:40:53.144Z,11.63
2023-02-26T15:43:28.731Z,11.57
2023-02-26T15:45:58.363Z,8.47
2023-02-26T15:48:36.924Z,7.23
2023-02-26T15:51:07.684Z,8.70
2023-02-26T15:53:37.148Z,7.20
2023-02-26T15:56:22.038Z,7.07
2023-02-26T15:59:01.922Z,6.80
2023-02-26T16:01:30.921Z,8.40
2023-02-26T16:04:02.181Z,6.97
2023-02-26T16:06:32.489Z,6.13
2023-02-26T16:09:00.935Z,9.30
2023-02-26T16:11:37.940Z,9.60
2023-02-26T16:14:06.787Z,9.43
2023-02-26T16:16:46.685Z,10.03
2023-02-26T16:19:32.545Z,11.10
2023-02-26T16:22:04.402Z,10.13
2023-02-26T16:24:33.546Z,12.47
2023-02-26T16:27:07.088Z,11.20
2023-02-26T16:29:37.184Z,12.77
2023-02-26T16:32:06.905Z,14.50
2023-02-26T16:34:49.043Z,13.57
2023-02-26T16:37:36.185Z,13.70
2023-02-26T16:40:11.930Z,13.70
2023-02-26T16:42:50.845Z,15.57
2023-02-26T16:45:36.692Z,12.37
2023-02-26T16:48:18.546Z,13.27
2023-02-26T16:51:00.987Z,13.63
2023-02-26T16:53:45.257Z,15.20
2023-02-26T16:56:25.664Z,14.17
2023-02-26T16:59:16.195Z,13.37
2023-02-26T17:01:57.601Z,14.90
2023-02-26T17:04:28.976Z,12.67
2023-02-26T17:06:56.716Z,13.83
2023-02-26T17:09:50.779Z,9.97
2023-02-26T17:12:22.568Z,14.47
2023-02-26T17:14:57.932Z,13.73
2023-02-26T17:17:26.169Z,12.37
2023-02-26T17:19:53.369Z,12.17
2023-02-26T17:22:26.585Z,11.80
2023-02-26T17:24:53.769Z,10.87
2023-02-26T17:27:31.042Z,13.60
2023-02-26T17:29:58.969Z,12.83
2023-02-26T17:32:27.979Z,14.83
2023-02-26T17:34:55.165Z,11.77
2023-02-26T17:37:24.928Z,12.67
2023-02-26T17:39:51.887Z,11.93
2023-02-26T17:42:21.580Z,10.53
2023-02-26T17:44:48.904Z,11.23
2023-02-26T17:47:26.532Z,13.37
2023-02-26T17:49:54.272Z,10.43
2023-02-26T17:52:21.438Z,13.37
2023-02-26T17:54:48.756Z,12.20
2023-02-26T17:57:23.340Z,13.67
2023-02-26T17:59:50.538Z,12.17
2023-02-26T18:02:28.235Z,11.27
2023-02-26T18:04:55.409Z,9.50
2023-02-26T18:07:24.095Z,9.00
2023-02-26T18:09:51.234Z,11.80
2023-02-26T18:12:21.372Z,9.00
2023-02-26T18:14:49.237Z,10.80
2023-02-26T18:17:23.501Z,9.57
2023-02-26T18:19:50.864Z,9.03
2023-02-26T18:22:19.962Z,9.70
2023-02-26T18:24:46.976Z,8.37
2023-02-26T18:27:16.778Z,11.37
2023-02-26T18:29:44.161Z,11.57
2023-02-26T18:32:22.814Z,10.27
2023-02-26T18:34:51.229Z,11.43
2023-02-26T18:37:23.395Z,11.70
2023-02-26T18:39:50.750Z,9.97
2023-02-26T18:42:24.255Z,12.97
2023-02-26T18:44:52.980Z,10.93
2023-02-26T18:47:21.667Z,12.03
2023-02-26T18:49:50.395Z,10.93
2023-02-26T18:52:18.120Z,10.80
2023-02-26T18:54:45.282Z,12.40
2023-02-26T18:57:12.342Z,13.33
2023-02-26T18:59:39.413Z,11.37
2023-02-26T19:02:07.934Z,9.77
2023-02-26T19:04:35.257Z,13.00
2023-02-26T19:07:02.496Z,14.17
2023-02-26T19:09:30.065Z,10.50
2023-02-26T19:11:57.726Z,11.47
2023-02-26T19:14:25.629Z,13.37
2023-02-26T19:16:52.860Z,11.47
2023-02-26T19:19:20.266Z,10.00
2023-02-26T19:21:48.379Z,10.87
2023-02-26T19:24:16.366Z,13.13
2023-02-26T19:26:43.869Z,15.37
2023-02-26T19:29:14.848Z,12.73
2023-02-26T19:31:42.381Z,13.57
2023-02-26T19:34:10.372Z,13.77
2023-02-26T19:36:37.735Z,11.73
2023-02-26T19:39:05.748Z,15.47
2023-02-26T19:41:33.520Z,13.77
2023-02-26T19:44:00.549Z,11.77
2023-02-26T19:46:27.737Z,12.13
2023-02-26T19:48:54.841Z,13.57
2023-02-26T19:51:21.850Z,16.33
2023-02-26T19:53:48.895Z,14.17
2023-02-26T19:56:15.999Z,12.37
2023-02-26T19:58:43.651Z,15.60
2023-02-26T20:01:10.802Z,17.50
2023-02-26T20:03:37.909Z,14.17
2023-02-26T20:06:05.211Z,13.87
2023-02-26T20:08:32.375Z,13.60
2023-02-26T20:10:59.457Z,15.67
2023-02-26T20:13:30.941Z,14.40
2023-02-26T20:16:01.066Z,14.57
2023-02-26T20:18:31.391Z,13.97
2023-02-26T20:21:08.149Z,14.50
2023-02-26T20:23:37.652Z,13.63
2023-02-26T20:26:08.076Z,14.00
2023-02-26T20:28:35.310Z,15.53
2023-02-26T20:31:03.690Z,16.70
2023-02-26T20:33:33.256Z,14.07
2023-02-26T20:36:01.073Z,15.10
2023-02-26T20:38:29.004Z,12.60
2023-02-26T20:40:56.776Z,16.63
2023-02-26T20:43:25.132Z,13.80
2023-02-26T20:45:54.000Z,14.80
2023-02-26T20:48:21.343Z,14.03
2023-02-26T20:50:49.776Z,16.13
2023-02-26T20:53:16.851Z,15.57
2023-02-26T20:55:43.942Z,15.47
2023-02-26T20:58:11.043Z,15.50
2023-02-26T21:00:38.347Z,14.77
2023-02-26T21:03:05.456Z,14.10
2023-02-26T21:05:34.437Z,15.50
2023-02-26T21:08:02.885Z,14.57
2023-02-26T21:10:29.943Z,14.93
2023-02-26T21:12:56.961Z,15.87
2023-02-26T21:15:24.059Z,17.07
2023-02-26T21:17:51.094Z,15.57
2023-02-26T21:20:18.248Z,15.97
2023-02-26T21:22:46.442Z,15.10
2023-02-26T21:25:13.905Z,16.33
2023-02-26T21:27:41.234Z,14.50
2023-02-26T21:30:11.279Z,13.13
2023-02-26T21:32:39.124Z,15.30
2023-02-26T21:35:08.016Z,13.27
2023-02-26T21:37:35.075Z,12.97
2023-02-26T21:40:02.263Z,12.73
2023-02-26T21:42:29.440Z,15.33
2023-02-26T21:44:56.667Z,16.17
2023-02-26T21:47:23.653Z,13.77
2023-02-26T21:49:50.699Z,12.27
2023-02-26T21:52:17.825Z,18.10
2023-02-26T21:54:44.894Z,14.67
2023-02-26T21:57:12.056Z,15.53
2023-02-26T21:59:39.101Z,14.70
2023-02-26T22:02:06.155Z,14.07
2023-02-26T22:04:33.975Z,13.77
2023-02-26T22:07:01.041Z,16.00
2023-02-26T22:09:28.152Z,15.83
2023-02-26T22:11:55.291Z,12.87
2023-02-26T22:14:22.490Z,15.90
2023-02-26T22:16:49.595Z,13.27
2023-02-26T22:19:16.806Z,19.20
2023-02-26T22:21:43.869Z,13.67
2023-02-26T22:24:11.064Z,15.70
2023-02-26T22:26:38.251Z,15.20
2023-02-26T22:29:05.352Z,16.07
2023-02-26T22:31:33.243Z,16.23
2023-02-26T22:34:00.712Z,17.23
2023-02-26T22:36:30.175Z,17.70
2023-02-26T22:38:57.452Z,21.60
2023-02-26T22:41:24.650Z,20.57
2023-02-26T22:43:53.863Z,20.63
2023-02-26T22:46:23.356Z,18.77
2023-02-26T22:48:50.507Z,24.40
2023-02-26T22:51:17.769Z,18.83
2023-02-26T22:53:44.906Z,22.70
2023-02-26T22:56:12.191Z,21.77
2023-02-26T22:58:39.393Z,21.83
2023-02-26T23:01:08.088Z,22.07
2023-02-26T23:03:35.102Z,23.60
2023-02-26T23:06:02.649Z,21.63
2023-02-26T23:08:29.605Z,25.77
2023-02-26T23:10:58.674Z,26.57
2023-02-26T23:13:26.396Z,29.37
2023-02-26T23:15:53.623Z,28.23
2023-02-26T23:18:21.033Z,30.53
2023-02-26T23:20:49.233Z,33.47
2023-02-26T23:23:16.944Z,35.03
2023-02-26T23:25:44.157Z,33.83
2023-02-26T23:28:12.125Z,36.37
2023-02-26T23:30:40.090Z,36.87
2023-02-26T23:33:07.517Z,32.10
2023-02-26T23:35:37.571Z,36.10
2023-02-26T23:38:05.383Z,36.87
2023-02-26T23:40:33.455Z,42.03
2023-02-26T23:43:00.567Z,38.30
2023-02-26T23:45:27.674Z,35.13
2023-02-26T23:47:54.673Z,34.87
2023-02-26T23:50:21.952Z,37.67
2023-02-26T23:52:49.085Z,34.27
2023-02-26T23:55:16.334Z,33.50
2023-02-26T23:57:44.155Z,34.00
